Time;durP1;ratioP1;P1;durP2;ratioP2;P2;SDS_P1;SDS_P2;PMS_P1;PMS_P2;Temp;Humidity;BMP_temperature;BMP_pressure;BME280_temperature;BME280_humidity;BME280_pressure;Samples;Min_cycle;Max_cycle;Signal;HPM_P1;HPM_P2
2021/12/09 00:01:38;;;;;;;14.85;8.05;;;3.00;99.90;;;;;;4957197;28;20116;-64
2021/12/09 00:04:08;;;;;;;14.43;7.70;;;3.00;99.90;;;;;;4963769;28;20516;-64
2021/12/09 00:06:35;;;;;;;17.77;8.27;;;3.00;99.90;;;;;;4962030;28;20413;-64
2021/12/09 00:09:07;;;;;;;13.85;8.25;;;3.00;99.90;;;;;;4969918;28;20039;-64
2021/12/09 00:11:42;;;;;;;15.13;8.27;;;2.90;99.90;;;;;;4955900;28;20038;-64
2021/12/09 00:14:08;;;;;;;14.63;8.88;;;3.00;99.90;;;;;;4979045;28;20047;-64
2021/12/09 00:16:34;;;;;;;17.10;9.45;;;2.90;99.90;;;;;;4962898;28;20038;-64
2021/12/09 00:19:00;;;;;;;13.43;8.63;;;2.90;99.90;;;;;;4975121;28;20046;-64
2021/12/09 00:21:26;;;;;;;14.20;8.10;;;2.90;99.90;;;;;;4963819;28;20061;-64
2021/12/09 00:23:52;;;;;;;15.10;8.57;;;3.10;99.90;;;;;;4967264;28;20046;-64
2021/12/09 00:26:18;;;;;;;14.60;8.32;;;2.90;99.90;;;;;;4971741;28;20050;-64
2021/12/09 00:28:43;;;;;;;14.82;8.70;;;2.80;99.90;;;;;;4965812;28;20081;-64
2021/12/09 00:31:09;;;;;;;16.17;9.23;;;2.80;99.90;;;;;;4977998;28;20121;-64
2021/12/09 00:33:41;;;;;;;15.30;8.95;;;2.90;99.90;;;;;;4961166;28;20578;-64
2021/12/09 00:36:08;;;;;;;16.60;9.13;;;2.80;99.90;;;;;;4967543;28;20053;-64
2021/12/09 00:38:36;;;;;;;14.43;8.85;;;2.80;99.90;;;;;;4964522;28;20047;-64
2021/12/09 00:41:06;;;;;;;20.00;9.10;;;2.80;99.90;;;;;;4947556;28;20512;-64
2021/12/09 00:43:31;;;;;;;14.88;8.75;;;2.80;99.90;;;;;;4951521;28;20046;-64
2021/12/09 00:45:58;;;;;;;17.35;8.95;;;2.90;99.90;;;;;;4967654;28;20041;-64
2021/12/09 00:48:25;;;;;;;18.75;10.13;;;2.80;99.90;;;;;;4975575;28;20145;-64
2021/12/09 00:50:52;;;;;;;19.60;9.48;;;2.80;99.90;;;;;;4964485;28;20404;-64
2021/12/09 00:53:18;;;;;;;21.35;9.68;;;2.80;99.90;;;;;;4950813;28;20050;-65
2021/12/09 00:55:44;;;;;;;17.15;10.38;;;2.80;99.90;;;;;;4981781;28;20062;-64
2021/12/09 00:58:10;;;;;;;19.45;9.80;;;2.90;99.90;;;;;;4997500;28;20077;-64
2021/12/09 01:00:36;;;;;;;16.08;9.55;;;2.80;99.90;;;;;;4960036;28;20050;-64
2021/12/09 01:03:01;;;;;;;22.40;10.95;;;2.80;99.90;;;;;;4979559;28;20496;-64
2021/12/09 01:05:28;;;;;;;18.55;9.25;;;2.70;99.90;;;;;;4985315;28;20047;-64
2021/12/09 01:07:55;;;;;;;19.75;10.05;;;2.80;99.90;;;;;;4966150;28;20039;-64
2021/12/09 01:10:22;;;;;;;17.65;9.77;;;2.80;99.90;;;;;;4955264;28;20038;-64
2021/12/09 01:12:48;;;;;;;18.05;10.00;;;2.70;99.90;;;;;;4950328;28;20038;-64
2021/12/09 01:15:16;;;;;;;16.83;9.18;;;2.80;99.90;;;;;;4963336;28;20691;-64
2021/12/09 01:17:43;;;;;;;19.50;9.32;;;2.70;99.90;;;;;;4969663;28;20053;-64
2021/12/09 01:20:11;;;;;;;16.02;10.20;;;2.70;99.90;;;;;;4981094;28;20117;-64
2021/12/09 01:22:42;;;;;;;16.20;9.90;;;2.70;99.90;;;;;;4970394;28;20065;-64
2021/12/09 01:25:11;;;;;;;16.45;10.88;;;2.70;99.90;;;;;;4953619;28;20045;-64
2021/12/09 01:27:40;;;;;;;20.90;10.48;;;2.60;99.90;;;;;;4941616;28;20035;-64
2021/12/09 01:30:12;;;;;;;20.52;11.93;;;2.60;99.90;;;;;;4962656;28;20262;-64
2021/12/09 01:32:43;;;;;;;20.55;10.85;;;2.60;99.90;;;;;;4975696;28;20050;-64
2021/12/09 01:35:09;;;;;;;16.88;9.95;;;2.60;99.90;;;;;;4966901;28;20080;-64
2021/12/09 01:37:38;;;;;;;21.17;11.60;;;2.60;99.90;;;;;;4963790;28;20069;-64
2021/12/09 01:40:04;;;;;;;17.52;10.07;;;2.60;99.90;;;;;;4965395;28;20120;-64
2021/12/09 01:42:30;;;;;;;18.80;10.82;;;2.60;99.90;;;;;;4973932;28;20034;-64
2021/12/09 01:44:56;;;;;;;19.38;10.10;;;2.50;99.90;;;;;;4966539;28;20442;-64
2021/12/09 01:47:22;;;;;;;17.90;11.18;;;2.50;99.90;;;;;;4983421;28;20170;-64
2021/12/09 01:49:49;;;;;;;20.58;11.05;;;2.50;99.90;;;;;;4990085;28;20129;-64
2021/12/09 01:52:14;;;;;;;22.42;11.85;;;2.50;99.90;;;;;;4949683;28;20043;-64
2021/12/09 01:54:40;;;;;;;17.67;10.80;;;2.50;99.90;;;;;;4982822;28;20854;-64
2021/12/09 01:57:07;;;;;;;17.50;12.00;;;2.50;99.90;;;;;;4930572;28;20046;-64
2021/12/09 01:59:33;;;;;;;19.58;11.65;;;2.50;99.90;;;;;;4982360;28;20064;-64
2021/12/09 02:02:00;;;;;;;21.98;12.63;;;2.40;99.90;;;;;;4948954;28;20504;-64
2021/12/09 02:04:27;;;;;;;18.58;11.57;;;2.40;99.90;;;;;;4945251;28;20151;-64
2021/12/09 02:06:53;;;;;;;22.70;12.45;;;2.40;99.90;;;;;;4952688;28;20045;-64
2021/12/09 02:09:19;;;;;;;19.33;11.93;;;2.40;99.90;;;;;;4971502;28;20058;-64
2021/12/09 02:11:45;;;;;;;17.58;11.93;;;2.40;99.90;;;;;;4967407;28;20129;-65
2021/12/09 02:14:11;;;;;;;21.38;12.18;;;2.40;99.90;;;;;;4948712;28;20708;-64
2021/12/09 02:16:37;;;;;;;23.38;12.38;;;2.40;99.90;;;;;;4945567;28;20054;-64
2021/12/09 02:19:04;;;;;;;18.33;11.55;;;2.40;99.90;;;;;;4968998;28;20045;-64
2021/12/09 02:21:33;;;;;;;21.98;12.27;;;2.40;99.90;;;;;;4994056;28;20389;-64
2021/12/09 02:24:05;;;;;;;20.48;11.45;;;2.40;99.90;;;;;;4964677;28;20417;-64
2021/12/09 02:26:35;;;;;;;21.23;11.80;;;2.40;99.90;;;;;;4975381;28;20117;-64
2021/12/09 02:29:02;;;;;;;22.80;11.77;;;2.40;99.90;;;;;;4961869;28;20062;-64
2021/12/09 02:31:29;;;;;;;21.58;11.93;;;2.40;99.90;;;;;;4947554;28;20042;-64
2021/12/09 02:33:56;;;;;;;21.50;12.32;;;2.40;99.90;;;;;;4946997;28;20046;-64
2021/12/09 02:36:22;;;;;;;23.90;12.35;;;2.40;99.90;;;;;;4967668;28;20054;-64
2021/12/09 02:38:50;;;;;;;19.15;12.57;;;2.40;99.90;;;;;;4957334;28;20398;-64
2021/12/09 02:41:19;;;;;;;21.33;12.55;;;2.40;99.90;;;;;;4976407;28;20058;-64
2021/12/09 02:43:54;;;;;;;23.13;13.20;;;2.40;99.90;;;;;;4954797;28;20054;-64
2021/12/09 02:46:23;;;;;;;19.52;12.05;;;2.40;99.90;;;;;;4979675;28;20072;-64
2021/12/09 02:48:49;;;;;;;20.50;13.48;;;2.40;99.90;;;;;;4969947;28;20069;-64
2021/12/09 02:51:16;;;;;;;25.23;13.35;;;2.40;99.90;;;;;;4963242;28;20035;-64
2021/12/09 02:53:42;;;;;;;26.45;13.57;;;2.40;99.90;;;;;;4976852;28;20034;-64
2021/12/09 02:56:08;;;;;;;22.73;14.68;;;2.40;99.90;;;;;;4958893;28;20050;-64
2021/12/09 02:58:34;;;;;;;20.23;13.05;;;2.40;99.90;;;;;;4964768;28;20392;-65
2021/12/09 03:01:18;;;;;;;25.13;15.18;;;2.40;99.90;;;;;;4960280;28;20045;-64
2021/12/09 03:03:51;;;;;;;;;;;2.40;99.90;;;;;;4973233;28;20418;-65
2021/12/09 03:06:19;;;;;;;25.27;13.75;;;2.30;99.90;;;;;;4974326;28;20404;-64
2021/12/09 03:08:45;;;;;;;25.77;14.23;;;2.30;99.90;;;;;;4961276;28;20174;-64
2021/12/09 03:11:15;;;;;;;20.23;13.48;;;2.30;99.90;;;;;;4975282;28;20042;-64
2021/12/09 03:13:43;;;;;;;21.10;14.05;;;2.30;99.90;;;;;;4960406;28;20608;-64
2021/12/09 03:16:09;;;;;;;22.58;14.27;;;2.30;99.90;;;;;;4950491;28;20090;-64
2021/12/09 03:18:56;;;;;;;24.48;13.43;;;2.30;99.90;;;;;;4964663;28;20095;-64
2021/12/09 03:21:23;;;;;;;23.23;13.57;;;2.30;99.90;;;;;;4973583;28;20495;-64
2021/12/09 03:23:50;;;;;;;24.90;14.75;;;2.30;99.90;;;;;;4982213;28;20455;-64
2021/12/09 03:26:18;;;;;;;23.70;14.45;;;2.30;99.90;;;;;;4966968;28;20088;-64
2021/12/09 03:28:44;;;;;;;22.38;13.95;;;2.30;99.90;;;;;;4972328;28;20254;-64
2021/12/09 03:31:10;;;;;;;29.38;16.05;;;2.30;99.90;;;;;;4948524;28;20073;-64
2021/12/09 03:33:36;;;;;;;30.60;15.23;;;2.20;99.90;;;;;;4949846;28;20435;-64
2021/12/09 03:36:06;;;;;;;25.60;14.70;;;2.20;99.90;;;;;;4944848;28;20104;-64
2021/12/09 03:38:32;;;;;;;21.65;15.00;;;2.20;99.90;;;;;;4970224;28;20065;-64
2021/12/09 03:40:59;;;;;;;22.92;12.90;;;2.20;99.90;;;;;;4983876;28;20101;-64
2021/12/09 03:43:25;;;;;;;25.33;14.20;;;2.20;99.90;;;;;;4966129;28;20038;-64
2021/12/09 03:45:55;;;;;;;21.60;14.27;;;2.20;99.90;;;;;;4970339;28;20453;-64
2021/12/09 03:48:25;;;;;;;23.50;14.00;;;2.20;99.90;;;;;;4959036;28;20044;-64
2021/12/09 03:50:52;;;;;;;21.95;14.80;;;2.10;99.90;;;;;;4968082;28;20042;-64
2021/12/09 03:53:19;;;;;;;21.02;13.60;;;2.10;99.90;;;;;;4961906;28;20117;-64
2021/12/09 03:55:45;;;;;;;28.65;14.77;;;2.10;99.90;;;;;;4972314;28;20046;-64
2021/12/09 03:58:11;;;;;;;24.02;15.20;;;2.10;99.90;;;;;;4976194;28;20497;-64
2021/12/09 04:00:37;;;;;;;20.92;14.40;;;2.10;99.90;;;;;;4946498;28;20077;-64
2021/12/09 04:03:03;;;;;;;28.33;15.20;;;2.10;99.90;;;;;;4983793;28;20385;-65
2021/12/09 04:05:29;;;;;;;28.52;14.80;;;2.10;99.90;;;;;;4983436;28;20045;-64
2021/12/09 04:07:55;;;;;;;23.63;15.13;;;2.10;99.90;;;;;;4967808;28;20038;-64
2021/12/09 04:10:21;;;;;;;30.08;15.57;;;2.10;99.90;;;;;;4961564;28;20041;-64
2021/12/09 04:12:47;;;;;;;25.58;15.20;;;2.10;99.90;;;;;;4971154;28;20043;-64
2021/12/09 04:15:13;;;;;;;29.15;15.70;;;2.10;99.90;;;;;;4959480;28;20038;-64
2021/12/09 04:17:39;;;;;;;23.88;15.27;;;2.10;99.90;;;;;;4969821;28;20050;-64
2021/12/09 04:20:08;;;;;;;28.33;15.05;;;2.10;99.90;;;;;;4983554;28;20093;-64
2021/12/09 04:22:34;;;;;;;28.90;14.65;;;2.10;99.90;;;;;;4976380;28;20673;-64
2021/12/09 04:25:00;;;;;;;32.85;15.43;;;2.10;99.90;;;;;;4948926;28;20122;-64
2021/12/09 04:27:27;;;;;;;24.02;14.82;;;2.10;99.90;;;;;;4962251;28;20049;-64
2021/12/09 04:29:54;;;;;;;26.67;14.75;;;2.10;99.90;;;;;;4967738;28;20496;-64
2021/12/09 04:32:20;;;;;;;24.02;15.27;;;2.10;99.90;;;;;;4975632;28;20086;-64
2021/12/09 04:34:46;;;;;;;27.35;15.88;;;2.10;99.90;;;;;;4964249;28;20137;-64
2021/12/09 04:37:13;;;;;;;24.40;15.25;;;2.10;99.90;;;;;;4961908;28;20068;-64
2021/12/09 04:39:40;;;;;;;26.35;14.65;;;2.10;99.90;;;;;;4968381;28;20050;-64
2021/12/09 04:42:06;;;;;;;27.08;15.18;;;2.10;99.90;;;;;;4959078;28;20054;-64
2021/12/09 04:44:32;;;;;;;29.60;16.75;;;2.00;99.90;;;;;;4969329;28;20453;-64
2021/12/09 04:47:00;;;;;;;26.30;14.25;;;2.00;99.90;;;;;;4941195;28;20113;-64
2021/12/09 04:49:27;;;;;;;25.05;15.30;;;2.00;99.90;;;;;;4980908;28;20042;-64
2021/12/09 04:51:53;;;;;;;28.95;15.10;;;2.00;99.90;;;;;;4983398;28;20034;-64
2021/12/09 04:54:19;;;;;;;26.20;15.68;;;2.00;99.90;;;;;;4959876;28;20439;-64
2021/12/09 04:56:46;;;;;;;24.75;15.02;;;2.00;99.90;;;;;;4969933;28;20046;-64
2021/12/09 04:59:12;;;;;;;24.55;13.70;;;2.00;99.90;;;;;;4957570;28;20584;-64
2021/12/09 05:01:37;;;;;;;26.67;15.25;;;2.00;99.90;;;;;;4974986;28;20046;-64
2021/12/09 05:04:04;;;;;;;26.88;15.27;;;2.00;99.90;;;;;;4965201;28;20046;-64
2021/12/09 05:06:30;;;;;;;28.15;15.48;;;2.00;99.90;;;;;;4968970;28;20594;-64
2021/12/09 05:09:04;;;;;;;28.75;15.05;;;2.00;99.90;;;;;;4983344;23;20049;-57
2021/12/09 05:11:47;;;;;;;25.20;14.82;;;2.00;99.90;;;;;;5052122;22;20048;-79
2021/12/09 05:14:19;;;;;;;22.88;13.60;;;2.00;99.90;;;;;;5011196;28;20064;-78
2021/12/09 05:16:48;;;;;;;24.13;13.63;;;1.90;99.90;;;;;;4997511;28;20033;-78
2021/12/09 05:19:14;;;;;;;25.83;13.23;;;1.90;99.90;;;;;;5019599;28;20095;-78
2021/12/09 05:21:40;;;;;;;25.35;14.45;;;1.90;99.90;;;;;;4994374;28;20413;-78
2021/12/09 05:24:08;;;;;;;22.92;14.10;;;1.90;99.90;;;;;;5017289;28;20052;-79
2021/12/09 05:26:41;;;;;;;24.88;14.52;;;1.90;99.90;;;;;;4996131;28;20444;-79
2021/12/09 05:29:07;;;;;;;25.42;14.20;;;1.90;99.90;;;;;;5001115;28;20083;-79
2021/12/09 05:34:18;;;;;;;23.48;13.07;;;1.80;99.90;;;;;;5004338;28;20120;-79
2021/12/09 05:36:44;;;;;;;24.85;13.63;;;1.80;99.90;;;;;;5009965;28;20048;-79
2021/12/09 05:39:11;;;;;;;31.05;15.02;;;1.80;99.90;;;;;;5002884;28;20037;-79
2021/12/09 05:41:38;;;;;;;25.65;14.00;;;1.80;99.90;;;;;;4998247;28;20124;-79
2021/12/09 05:44:05;;;;;;;26.67;13.68;;;1.80;99.90;;;;;;4996915;28;20049;-79
2021/12/09 05:46:34;;;;;;;29.25;14.60;;;1.80;99.90;;;;;;5012910;28;20038;-79
2021/12/09 05:49:00;;;;;;;23.63;14.02;;;1.80;99.90;;;;;;4993158;28;20164;-79
2021/12/09 05:51:26;;;;;;;25.67;14.07;;;1.80;99.90;;;;;;4996374;28;20041;-79
2021/12/09 05:53:52;;;;;;;25.10;13.68;;;2.20;99.90;;;;;;4998406;28;20033;-79
2021/12/09 05:56:19;;;;;;;25.50;14.05;;;1.70;99.90;;;;;;5017143;28;20508;-79
2021/12/09 05:58:45;;;;;;;26.75;13.88;;;1.70;99.90;;;;;;4978775;28;20404;-79
2021/12/09 06:01:11;;;;;;;24.25;13.75;;;2.10;99.90;;;;;;4991600;28;20029;-78
2021/12/09 06:03:36;;;;;;;23.42;12.32;;;1.70;99.90;;;;;;4996713;28;20431;-79
2021/12/09 06:06:02;;;;;;;29.38;14.55;;;1.70;99.90;;;;;;5010568;28;20125;-79
2021/12/09 06:08:28;;;;;;;23.33;13.88;;;1.70;99.90;;;;;;4996691;28;20033;-79
2021/12/09 06:10:54;;;;;;;28.33;14.52;;;1.70;99.90;;;;;;5009248;28;20041;-79
2021/12/09 06:13:22;;;;;;;25.52;14.32;;;1.70;99.90;;;;;;4994878;28;20056;-79
2021/12/09 06:15:48;;;;;;;24.92;13.02;;;1.70;99.90;;;;;;4996686;28;20069;-79
2021/12/09 06:18:14;;;;;;;24.05;14.73;;;1.70;99.90;;;;;;4961572;28;20521;-79
2021/12/09 06:20:40;;;;;;;26.83;14.00;;;1.70;99.90;;;;;;4998105;28;20037;-79
2021/12/09 06:23:06;;;;;;;27.00;14.63;;;2.20;99.90;;;;;;5001708;28;20056;-79
2021/12/09 06:25:32;;;;;;;25.85;15.02;;;1.70;99.90;;;;;;5009643;28;20091;-79
2021/12/09 06:27:58;;;;;;;28.45;14.65;;;1.70;99.90;;;;;;4996900;28;20036;-79
2021/12/09 06:30:24;;;;;;;44.65;24.63;;;1.70;99.90;;;;;;4989836;28;20077;-79
2021/12/09 06:32:50;;;;;;;36.05;21.15;;;1.70;99.90;;;;;;4990956;28;20042;-78
2021/12/09 06:35:17;;;;;;;26.10;15.07;;;1.70;99.90;;;;;;5007067;28;20041;-79
2021/12/09 06:37:45;;;;;;;25.73;13.98;;;1.70;99.90;;;;;;5003308;28;20045;-79
2021/12/09 06:40:14;;;;;;;29.42;14.50;;;1.70;99.90;;;;;;4994749;28;20202;-79
2021/12/09 06:42:44;;;;;;;23.92;13.32;;;2.10;99.90;;;;;;5014086;28;20077;-79
2021/12/09 06:45:11;;;;;;;23.38;14.35;;;1.70;99.90;;;;;;4997833;28;20119;-79
2021/12/09 06:47:38;;;;;;;28.52;15.13;;;1.70;99.90;;;;;;5006784;28;20049;-79
2021/12/09 06:50:06;;;;;;;22.95;13.23;;;1.70;99.90;;;;;;4982118;28;20033;-78
2021/12/09 06:52:31;;;;;;;27.17;13.38;;;1.70;99.90;;;;;;5015454;28;20571;-79
2021/12/09 06:54:57;;;;;;;25.65;13.13;;;1.70;99.90;;;;;;4987962;28;20041;-79
2021/12/09 06:57:25;;;;;;;26.42;12.27;;;2.00;99.90;;;;;;4977954;28;20033;-79
2021/12/09 06:59:51;;;;;;;23.25;13.40;;;2.10;99.90;;;;;;4996650;28;20264;-78
2021/12/09 07:02:17;;;;;;;24.08;13.43;;;1.70;99.90;;;;;;4963247;28;20221;-78
2021/12/09 07:04:43;;;;;;;22.48;12.98;;;1.70;99.90;;;;;;4987550;28;20037;-77
2021/12/09 07:07:09;;;;;;;27.92;13.85;;;1.70;99.90;;;;;;5004636;28;20746;-78
2021/12/09 07:09:37;;;;;;;22.58;12.82;;;1.60;99.90;;;;;;4996425;28;20088;-78
2021/12/09 07:12:03;;;;;;;28.13;13.52;;;1.70;99.90;;;;;;4996183;28;20034;-78
2021/12/09 07:14:29;;;;;;;35.90;15.63;;;1.60;99.90;;;;;;5019923;28;20497;-79
2021/12/09 07:16:55;;;;;;;24.25;13.40;;;1.60;99.90;;;;;;4977645;28;20103;-80
2021/12/09 07:19:21;;;;;;;22.98;13.65;;;1.60;99.90;;;;;;5005338;28;20497;-78
2021/12/09 07:21:47;;;;;;;25.70;12.65;;;1.60;99.90;;;;;;4970371;28;20033;-78
2021/12/09 07:24:15;;;;;;;22.63;12.40;;;1.60;99.90;;;;;;4970029;28;20049;-79
2021/12/09 07:26:41;;;;;;;28.63;14.77;;;1.60;99.90;;;;;;4983610;28;20261;-78
2021/12/09 07:29:07;;;;;;;26.55;14.05;;;1.60;99.90;;;;;;4991601;28;20624;-78
2021/12/09 07:31:35;;;;;;;25.05;13.45;;;1.60;99.90;;;;;;5006353;28;20033;-78
2021/12/09 07:34:04;;;;;;;22.80;13.20;;;1.50;99.90;;;;;;4989415;28;20037;-79
2021/12/09 07:36:30;;;;;;;28.52;14.90;;;1.50;99.90;;;;;;4995940;28;20034;-79
2021/12/09 07:39:01;;;;;;;27.10;14.40;;;1.50;99.90;;;;;;5012976;28;20048;-79
2021/12/09 07:42:06;;;;;;;22.67;14.13;;;1.60;99.90;;;;;;4947069;28;20679;-79
2021/12/09 07:45:42;;;;;;;23.90;12.23;;;1.90;99.90;;;;;;5002925;28;20453;-78
2021/12/09 07:48:07;;;;;;;26.58;13.80;;;1.50;99.90;;;;;;4947871;28;20055;-78
2021/12/09 07:50:33;;;;;;;23.73;12.52;;;1.30;99.90;;;;;;5006901;28;20049;-79
2021/12/09 07:53:00;;;;;;;29.58;13.50;;;1.80;99.90;;;;;;4993267;28;20033;-78
2021/12/09 07:55:27;;;;;;;26.27;13.73;;;2.00;99.90;;;;;;5016731;28;20040;-78
2021/12/09 07:57:53;;;;;;;23.38;14.25;;;1.50;99.90;;;;;;4977909;28;20497;-79
2021/12/09 08:00:25;;;;;;;24.77;14.20;;;1.50;99.90;;;;;;4990850;28;21448;-78
2021/12/09 08:02:52;;;;;;;25.33;12.30;;;1.30;99.90;;;;;;5009160;28;20106;-79
2021/12/09 08:05:19;;;;;;;26.92;13.52;;;1.50;99.90;;;;;;4992531;28;20127;-79
2021/12/09 08:07:45;;;;;;;27.83;14.07;;;1.60;99.90;;;;;;4994239;28;20525;-79
2021/12/09 08:10:15;;;;;;;25.58;13.98;;;1.50;99.90;;;;;;4975037;28;20038;-80
2021/12/09 08:12:42;;;;;;;28.92;13.98;;;1.50;99.90;;;;;;4992922;28;20045;-79
2021/12/09 08:15:11;;;;;;;23.85;12.55;;;1.60;99.90;;;;;;5003126;28;20076;-79
2021/12/09 08:20:05;;;;;;;23.55;12.40;;;1.60;99.90;;;;;;5006146;28;20049;-79
2021/12/09 08:22:32;;;;;;;30.55;13.73;;;1.60;99.90;;;;;;4981022;28;20049;-78
2021/12/09 08:24:58;;;;;;;22.23;12.50;;;1.60;99.90;;;;;;4986824;28;20034;-78
2021/12/09 08:27:25;;;;;;;24.20;12.50;;;1.60;99.90;;;;;;5003400;28;20059;-78
2021/12/09 08:29:51;;;;;;;21.27;12.60;;;1.70;99.90;;;;;;4993619;28;20037;-77
2021/12/09 08:32:17;;;;;;;24.27;12.50;;;1.60;99.90;;;;;;4996271;28;20112;-79
2021/12/09 08:34:43;;;;;;;34.00;14.23;;;1.70;99.90;;;;;;5011058;28;20569;-79
2021/12/09 08:37:09;;;;;;;25.15;12.48;;;1.70;99.90;;;;;;4994653;28;20045;-78
2021/12/09 08:39:35;;;;;;;23.25;12.82;;;1.90;99.90;;;;;;5012972;28;20395;-78
2021/12/09 08:42:01;;;;;;;23.67;12.60;;;1.70;99.90;;;;;;4986021;28;20128;-78
2021/12/09 08:44:27;;;;;;;18.27;10.85;;;1.70;99.90;;;;;;4993555;28;20076;-79
2021/12/09 08:46:53;;;;;;;24.15;13.13;;;1.70;99.90;;;;;;5012778;28;20038;-79
2021/12/09 08:49:19;;;;;;;25.38;12.60;;;1.70;99.90;;;;;;5010255;28;20080;-79
2021/12/09 08:51:45;;;;;;;25.70;12.32;;;1.70;99.90;;;;;;4988732;28;20480;-79
2021/12/09 08:54:13;;;;;;;24.52;12.27;;;1.80;99.90;;;;;;4998586;28;20115;-79
2021/12/09 08:56:39;;;;;;;25.77;12.63;;;1.80;99.90;;;;;;4999623;28;20091;-79
2021/12/09 08:59:07;;;;;;;28.50;13.30;;;1.80;99.90;;;;;;5000455;28;20509;-79
2021/12/09 09:01:34;;;;;;;22.30;12.02;;;1.90;99.90;;;;;;5013722;28;20068;-80
2021/12/09 09:04:01;;;;;;;28.90;12.23;;;1.90;99.90;;;;;;5030710;28;20041;-79
2021/12/09 09:06:29;;;;;;;22.02;11.13;;;1.90;99.90;;;;;;4999947;28;20038;-78
2021/12/09 09:08:57;;;;;;;21.42;11.60;;;2.00;99.90;;;;;;4999558;28;20043;-78
2021/12/09 09:11:24;;;;;;;23.00;10.75;;;2.00;99.90;;;;;;5000649;28;20076;-79
2021/12/09 09:13:50;;;;;;;23.40;10.93;;;2.00;99.90;;;;;;5003733;28;20043;-78
2021/12/09 09:16:16;;;;;;;19.15;11.45;;;2.00;99.90;;;;;;4997203;28;20187;-78
2021/12/09 09:18:42;;;;;;;23.42;11.50;;;2.10;99.90;;;;;;5001717;28;20056;-79
2021/12/09 09:21:08;;;;;;;23.83;11.30;;;2.60;99.90;;;;;;5016771;28;20505;-78
2021/12/09 09:23:34;;;;;;;29.38;13.02;;;2.10;99.90;;;;;;5000066;28;20049;-78
2021/12/09 09:26:00;;;;;;;21.70;11.52;;;2.20;99.90;;;;;;5014853;28;21260;-78
2021/12/09 09:28:26;;;;;;;20.67;11.13;;;2.20;99.90;;;;;;4999485;28;20125;-79
2021/12/09 09:30:53;;;;;;;20.70;10.82;;;2.30;99.90;;;;;;5001152;28;20075;-78
2021/12/09 09:33:24;;;;;;;20.08;10.68;;;2.30;99.90;;;;;;4999648;28;20045;-78
2021/12/09 09:35:50;;;;;;;23.73;11.23;;;2.40;99.90;;;;;;5011150;28;20038;-81
2021/12/09 09:38:17;;;;;;;23.60;10.35;;;2.30;99.90;;;;;;5011798;28;20124;-78
2021/12/09 09:40:52;;;;;;;26.55;12.23;;;2.40;99.90;;;;;;4993487;28;20068;-78
2021/12/09 09:43:44;;;;;;;24.02;11.38;;;2.50;99.90;;;;;;5012208;28;20041;-79
2021/12/09 09:46:19;;;;;;;23.13;10.43;;;2.50;99.90;;;;;;4981127;28;20037;-79
2021/12/09 09:48:48;;;;;;;18.50;10.35;;;2.50;99.90;;;;;;4978579;28;20049;-79
2021/12/09 09:51:14;;;;;;;21.95;10.70;;;2.60;99.90;;;;;;5017802;28;20041;-79
2021/12/09 09:53:43;;;;;;;20.63;10.68;;;2.60;99.90;;;;;;4993654;28;20073;-82
2021/12/09 09:56:16;;;;;;;21.70;10.88;;;2.90;99.90;;;;;;5012301;28;20083;-80
2021/12/09 09:58:46;;;;;;;18.30;9.98;;;2.90;99.90;;;;;;4982215;28;20511;-79
2021/12/09 10:01:12;;;;;;;23.58;10.10;;;2.70;99.90;;;;;;5021200;28;20052;-80
2021/12/09 10:03:51;;;;;;;24.15;11.27;;;2.70;99.90;;;;;;4998900;28;20038;-79
2021/12/09 10:06:19;;;;;;;17.98;9.90;;;2.80;99.90;;;;;;5003462;28;20128;-79
2021/12/09 10:08:46;;;;;;;18.77;9.52;;;2.80;99.90;;;;;;5019363;28;20414;-81
2021/12/09 10:11:12;;;;;;;19.63;10.32;;;2.80;99.90;;;;;;5019756;28;20041;-80
2021/12/09 10:13:41;;;;;;;20.10;10.05;;;2.80;99.90;;;;;;5001862;28;20493;-82
2021/12/09 10:16:22;;;;;;;18.15;9.68;;;2.80;99.90;;;;;;5004320;28;20045;-81
2021/12/09 10:18:51;;;;;;;19.20;10.00;;;2.90;99.90;;;;;;5021483;28;20053;-78
2021/12/09 10:21:26;;;;;;;20.20;9.98;;;2.80;99.90;;;;;;4999100;28;20055;-78
2021/12/09 10:24:08;;;;;;;22.33;10.20;;;2.80;99.90;;;;;;4997250;28;20045;-82
2021/12/09 10:26:53;;;;;;;18.75;9.98;;;2.90;99.90;;;;;;5029116;28;20045;-86
2021/12/09 10:29:35;;;;;;;20.85;9.93;;;2.90;99.90;;;;;;4981408;22;20041;-63
2021/12/09 10:32:06;;;;;;;21.95;10.70;;;2.80;99.90;;;;;;5011357;28;20119;-63
2021/12/09 10:34:41;;;;;;;26.95;11.48;;;2.80;99.90;;;;;;4957181;28;20048;-62
2021/12/09 10:37:28;;;;;;;21.83;11.45;;;2.80;99.90;;;;;;4983052;28;20050;-63
2021/12/09 10:40:08;;;;;;;25.95;12.20;;;2.90;99.90;;;;;;4975784;28;20074;-61
2021/12/09 10:42:46;;;;;;;24.58;13.70;;;2.90;99.90;;;;;;4990850;28;20045;-62
2021/12/09 10:45:28;;;;;;;25.30;12.48;;;2.90;99.90;;;;;;4993119;28;20069;-60
2021/12/09 10:48:19;;;;;;;26.67;14.00;;;3.00;99.90;;;;;;4970485;28;20047;-62
2021/12/09 10:51:08;;;;;;;25.73;13.05;;;3.00;99.90;;;;;;4989504;28;20057;-61
2021/12/09 10:56:01;;;;;;;29.27;14.95;;;3.00;99.90;;;;;;4973563;28;20054;-63
2021/12/09 10:58:28;;;;;;;30.88;15.32;;;3.10;99.90;;;;;;4977604;28;20385;-63
2021/12/09 11:00:58;;;;;;;29.90;15.73;;;3.10;99.90;;;;;;4990820;28;20464;-62
2021/12/09 11:03:29;;;;;;;35.85;16.58;;;3.10;99.90;;;;;;4989201;28;20073;-63
2021/12/09 11:05:59;;;;;;;37.65;16.63;;;3.10;99.90;;;;;;4987122;28;20053;-63
2021/12/09 11:08:44;;;;;;;35.55;16.92;;;3.10;99.90;;;;;;4987968;28;20412;-61
2021/12/09 11:11:18;;;;;;;39.53;17.23;;;3.20;99.90;;;;;;4997839;28;20045;-63
2021/12/09 11:13:48;;;;;;;;;;;3.20;99.90;;;;;;4985736;28;20049;-63
2021/12/09 11:16:23;;;;;;;35.60;18.73;;;3.20;99.90;;;;;;4993271;28;19960;-60
2021/12/09 11:18:51;;;;;;;35.80;17.58;;;3.20;99.90;;;;;;4991287;28;20049;-60
2021/12/09 11:21:24;;;;;;;37.88;18.30;;;3.20;99.90;;;;;;4980083;28;20041;-59
2021/12/09 11:24:00;;;;;;;43.30;19.02;;;3.30;99.90;;;;;;4970348;28;20088;-62
2021/12/09 11:26:41;;;;;;;38.72;17.42;;;3.30;99.90;;;;;;4984053;28;20046;-62
2021/12/09 11:29:17;;;;;;;36.13;18.17;;;3.30;99.90;;;;;;4997852;28;20034;-60
2021/12/09 11:31:49;;;;;;;36.85;17.45;;;3.30;99.90;;;;;;4984846;28;20041;-63
2021/12/09 11:34:19;;;;;;;31.92;17.45;;;3.40;99.90;;;;;;4982129;28;20038;-60
2021/12/09 11:36:49;;;;;;;41.97;18.95;;;3.30;99.90;;;;;;4992376;28;20038;-61
2021/12/09 11:39:24;;;;;;;40.97;17.33;;;3.40;99.90;;;;;;4959546;28;20049;-59
2021/12/09 11:41:50;;;;;;;40.00;18.10;;;3.40;99.90;;;;;;4950032;28;20511;-62
2021/12/09 11:44:16;;;;;;;36.33;17.50;;;3.40;99.90;;;;;;4975285;28;20046;-59
2021/12/09 11:46:45;;;;;;;34.30;17.58;;;3.40;99.90;;;;;;4972060;28;20050;-60
2021/12/09 11:49:11;;;;;;;30.83;17.33;;;3.50;99.90;;;;;;4986427;28;20138;-59
2021/12/09 11:51:39;;;;;;;34.85;17.15;;;3.50;99.90;;;;;;4991518;28;20046;-62
2021/12/09 11:54:06;;;;;;;34.80;18.35;;;3.50;99.90;;;;;;4965039;28;20803;-61
2021/12/09 12:06:35;;;;;;;44.88;19.33;;;3.50;99.90;;;;;;4982934;28;20096;-60
2021/12/09 12:11:30;;;;;;;39.55;18.63;;;3.50;99.90;;;;;;4984025;28;20181;-60
2021/12/09 12:14:03;;;;;;;35.53;17.05;;;3.60;99.90;;;;;;4991187;28;20206;-61
2021/12/09 12:19:31;;;;;;;33.30;19.90;;;3.60;99.90;;;;;;4992708;28;20047;-59
2021/12/09 12:22:12;;;;;;;37.53;17.73;;;3.60;99.90;;;;;;4994147;28;20528;-60
2021/12/09 12:27:27;;;;;;;36.60;19.60;;;3.60;99.90;;;;;;4983554;28;20084;-61
2021/12/09 12:30:17;;;;;;;37.13;18.23;;;3.60;99.90;;;;;;4990468;28;20493;-60
2021/12/09 12:36:03;;;;;;;42.13;20.33;;;3.70;99.90;;;;;;4928709;28;20055;-63
2021/12/09 12:38:36;;;;;;;42.72;20.00;;;3.70;99.90;;;;;;4988728;28;20132;-60
2021/12/09 12:41:11;;;;;;;43.35;19.30;;;3.70;99.90;;;;;;4998221;28;20470;-60
2021/12/09 12:44:05;;;;;;;40.60;19.75;;;3.80;99.90;;;;;;4996716;28;20397;-60
2021/12/09 12:49:18;;;;;;;38.60;20.08;;;3.80;99.90;;;;;;4995724;28;19918;-62
2021/12/09 12:52:09;;;;;;;41.55;20.02;;;3.80;99.90;;;;;;4971008;28;20038;-60
2021/12/09 12:57:14;;;;;;;46.05;19.83;;;3.80;99.90;;;;;;4986012;28;20596;-61
2021/12/09 12:59:42;;;;;;;37.70;19.65;;;3.80;99.90;;;;;;5006385;23;20665;-55
2021/12/09 13:02:19;;;;;;;39.25;20.52;;;3.90;99.90;;;;;;4983807;28;20045;-56
2021/12/09 13:10:43;;;;;;;33.58;18.77;;;3.90;99.90;;;;;;4987578;28;20081;-55
2021/12/09 13:19:02;;;;;;;37.25;19.67;;;4.00;99.90;;;;;;4990385;28;20038;-56
2021/12/09 13:21:57;;;;;;;40.60;21.80;;;4.00;99.90;;;;;;4985700;28;20053;-55
2021/12/09 13:35:38;;;;;;;42.95;19.40;;;4.00;99.90;;;;;;4989578;28;20060;-56
2021/12/09 13:49:06;;;;;;;41.65;20.98;;;4.10;99.90;;;;;;4983772;28;20070;-58
2021/12/09 13:54:26;;;;;;;44.72;22.95;;;4.10;99.90;;;;;;4992108;28;20467;-58
2021/12/09 13:57:06;;;;;;;45.13;22.33;;;4.10;99.90;;;;;;4990977;28;20344;-55
2021/12/09 13:59:36;;;;;;;38.72;20.58;;;4.10;99.90;;;;;;4994553;28;20052;-53